KACT/ACT METAR and TAF weather

Enter ICAO airport designator
Station Type Date Time Source
KACT METAR 2019/10/18 10:51 UTC NOAA

KACT 181051Z AUTO 10SM CLR 09/07 A2992 RMK AO2 SLP127 T00890072 $


Station Type Date Time Source
KACT Decoded METAR 2019/10/18 10:51 UTC NOAA

WACO REGIONAL AIRPORT, TX, United States (KACT) 31-36N 97-13W 151M
Oct 18, 2019 - 06:51 AM EDT / 2019.10.18 1051 UTC
Visibility: 10 mile(s):0
Sky conditions: clear
Temperature: 48.0 F (8.9 C)
Dew Point: 45.0 F (7.2 C)
Relative Humidity: 89%
Pressure (altimeter): 29.92 in. Hg (1013 hPa)
ob: KACT 181051Z AUTO 10SM CLR 09/07 A2992 RMK AO2 SLP127 T00890072
cycle: 11

Station Type Date Time Source
KACT TAF 2019/10/18 09:06 UTC NOAA

TAF
AMD KACT 180903Z 1809/1906 15006KT P6SM FEW300

Example: see airport list